createdAt,value
2023-12-24T00:00:26.973Z,0.40
2023-12-24T00:02:59.275Z,0.20
2023-12-24T00:05:31.385Z,0.30
2023-12-24T00:08:03.014Z,0.30
2023-12-24T00:10:33.340Z,0.30
2023-12-24T00:13:03.655Z,0.20
2023-12-24T00:15:33.935Z,0.38
2023-12-24T00:18:04.678Z,0.20
2023-12-24T00:20:35.161Z,0.60
2023-12-24T00:23:09.995Z,0.20
2023-12-24T00:25:42.116Z,0.13
2023-12-24T00:28:12.923Z,0.28
2023-12-24T00:30:43.279Z,0.30
2023-12-24T00:33:13.942Z,0.28
2023-12-24T00:35:44.647Z,0.30
2023-12-24T00:38:15.464Z,0.20
2023-12-24T00:40:45.872Z,0.30
2023-12-24T00:43:16.485Z,0.20
2023-12-24T00:45:47.351Z,0.30
2023-12-24T00:48:17.972Z,0.10
2023-12-24T00:50:48.400Z,0.20
2023-12-24T00:53:19.827Z,0.30
2023-12-24T00:55:50.325Z,0.25
2023-12-24T00:58:20.884Z,0.30
2023-12-24T01:00:51.391Z,0.35
2023-12-24T01:03:22.768Z,0.30
2023-12-24T01:05:53.252Z,0.40
2023-12-24T01:08:24.074Z,0.30
2023-12-24T01:10:55.626Z,0.30
2023-12-24T01:13:25.993Z,0.47
2023-12-24T01:15:58.068Z,0.38
2023-12-24T01:18:31.492Z,0.20
2023-12-24T01:21:01.873Z,0.30
2023-12-24T01:23:32.192Z,0.20
2023-12-24T01:26:06.734Z,0.30
2023-12-24T01:28:37.140Z,0.25
2023-12-24T01:31:07.773Z,0.40
2023-12-24T01:33:38.314Z,0.28
2023-12-24T01:36:12.757Z,0.30
2023-12-24T01:38:43.460Z,0.22
2023-12-24T01:41:13.755Z,0.10
2023-12-24T01:43:47.505Z,0.20
2023-12-24T01:46:23.712Z,0.60
2023-12-24T01:48:55.939Z,0.22
2023-12-24T01:51:27.416Z,0.30
2023-12-24T01:53:59.395Z,0.30
2023-12-24T01:56:34.529Z,0.30
2023-12-24T01:59:06.970Z,0.40
2023-12-24T02:01:39.213Z,0.30
2023-12-24T02:04:09.541Z,0.20
2023-12-24T02:06:40.304Z,0.30
2023-12-24T02:09:10.627Z,0.50
2023-12-24T02:11:41.030Z,0.30
2023-12-24T02:14:12.449Z,0.40
2023-12-24T02:16:45.399Z,0.40
2023-12-24T02:19:22.091Z,0.43
2023-12-24T02:21:52.768Z,0.60
2023-12-24T02:24:23.336Z,0.30
2023-12-24T02:27:17.961Z,0.45
2023-12-24T02:29:53.101Z,0.50
2023-12-24T02:32:24.609Z,0.50
2023-12-24T02:34:56.222Z,0.30
2023-12-24T02:37:27.417Z,0.35
2023-12-24T02:39:58.156Z,0.20
2023-12-24T02:42:28.527Z,0.28
2023-12-24T02:44:58.898Z,0.35
2023-12-24T02:47:29.302Z,0.30
2023-12-24T02:49:59.680Z,0.25
2023-12-24T02:52:29.985Z,0.13
2023-12-24T02:55:00.345Z,0.50
2023-12-24T02:57:33.161Z,0.25
2023-12-24T03:00:03.940Z,0.40
2023-12-24T03:02:35.804Z,0.20
2023-12-24T03:05:06.719Z,0.40
2023-12-24T03:07:37.371Z,0.40
2023-12-24T03:10:08.904Z,0.22
2023-12-24T03:12:39.306Z,0.50
2023-12-24T03:15:10.969Z,0.20
2023-12-24T03:17:41.564Z,0.30
2023-12-24T03:20:12.809Z,0.20
2023-12-24T03:22:43.200Z,0.30
2023-12-24T03:25:13.578Z,0.20
2023-12-24T03:27:43.924Z,0.75
2023-12-24T03:30:15.080Z,0.30
2023-12-24T03:32:47.154Z,0.25
2023-12-24T03:35:17.772Z,0.20
2023-12-24T03:37:48.246Z,0.28
2023-12-24T03:40:34.608Z,0.20
2023-12-24T03:43:06.412Z,0.40
2023-12-24T03:45:36.888Z,0.25
2023-12-24T03:48:08.032Z,0.13
2023-12-24T03:50:38.756Z,0.20
2023-12-24T03:53:10.844Z,0.20
2023-12-24T03:55:42.457Z,0.30
2023-12-24T03:58:13.124Z,0.20
2023-12-24T04:00:47.524Z,0.68
2023-12-24T04:03:17.968Z,0.22
2023-12-24T04:05:48.413Z,0.30
2023-12-24T04:08:19.290Z,0.32
2023-12-24T04:10:58.678Z,0.20
2023-12-24T04:13:29.114Z,0.10
2023-12-24T04:15:59.467Z,0.40
2023-12-24T04:18:29.858Z,0.20
2023-12-24T04:21:00.507Z,0.40
2023-12-24T04:23:30.933Z,0.40
2023-12-24T04:26:03.339Z,0.35
2023-12-24T04:28:36.168Z,0.50
2023-12-24T04:31:06.872Z,0.40
2023-12-24T04:33:40.689Z,0.57
2023-12-24T04:36:11.473Z,0.55
2023-12-24T04:38:56.789Z,0.40
2023-12-24T04:41:29.700Z,0.28
2023-12-24T04:44:00.128Z,0.40
2023-12-24T04:46:30.493Z,0.50
2023-12-24T04:49:02.009Z,0.45
2023-12-24T04:51:32.324Z,0.60
2023-12-24T04:54:02.681Z,0.52
2023-12-24T04:56:34.259Z,0.50
2023-12-24T04:59:05.001Z,0.75
2023-12-24T05:01:35.347Z,1.67
2023-12-24T05:04:09.471Z,1.00
2023-12-24T05:06:39.815Z,1.08
2023-12-24T05:09:11.053Z,1.25
2023-12-24T05:11:44.089Z,1.13
2023-12-24T05:14:14.632Z,1.23
2023-12-24T05:16:47.589Z,0.82
2023-12-24T05:19:18.069Z,0.88
2023-12-24T05:21:48.386Z,0.70
2023-12-24T05:24:18.750Z,0.60
2023-12-24T05:26:49.191Z,0.93
2023-12-24T05:29:22.046Z,0.50
2023-12-24T05:31:52.652Z,0.70
2023-12-24T05:34:23.071Z,0.88
2023-12-24T05:36:53.453Z,0.80
2023-12-24T05:39:24.015Z,0.60
2023-12-24T05:41:54.366Z,0.90
2023-12-24T05:44:25.733Z,0.75
2023-12-24T05:46:56.918Z,0.57
2023-12-24T05:49:28.903Z,0.90
2023-12-24T05:52:01.232Z,1.10
2023-12-24T05:54:31.519Z,0.70
2023-12-24T05:57:01.797Z,0.90
2023-12-24T05:59:32.792Z,0.70
2023-12-24T06:02:05.048Z,1.25
2023-12-24T06:04:37.426Z,0.65
2023-12-24T06:07:09.385Z,0.80
2023-12-24T06:09:39.991Z,1.50
2023-12-24T06:12:11.963Z,0.75
2023-12-24T06:14:43.609Z,0.68
2023-12-24T06:17:14.159Z,0.60
2023-12-24T06:19:44.623Z,0.90
2023-12-24T06:22:14.993Z,0.85
2023-12-24T06:24:45.475Z,0.75
2023-12-24T06:27:15.889Z,0.70
2023-12-24T06:29:46.293Z,0.70
2023-12-24T06:32:17.092Z,0.57
2023-12-24T06:34:47.602Z,0.80
2023-12-24T06:37:19.285Z,0.50
2023-12-24T06:39:50.178Z,0.70
2023-12-24T06:42:20.872Z,0.40
2023-12-24T06:44:52.968Z,0.50
2023-12-24T06:47:26.574Z,0.40
2023-12-24T06:49:56.871Z,0.73
2023-12-24T06:52:27.143Z,0.43
2023-12-24T06:54:57.437Z,0.77
2023-12-24T06:57:28.128Z,0.50
2023-12-24T06:59:58.442Z,0.70
2023-12-24T07:02:29.383Z,0.55
2023-12-24T07:04:59.859Z,0.75
2023-12-24T07:07:30.155Z,0.55
2023-12-24T07:10:02.265Z,0.30
2023-12-24T07:12:35.132Z,1.33
2023-12-24T07:15:06.021Z,0.88
2023-12-24T07:17:37.034Z,0.60
2023-12-24T07:20:07.879Z,1.35
2023-12-24T07:22:38.140Z,0.80
2023-12-24T07:25:09.558Z,1.20
2023-12-24T07:27:39.972Z,1.20
2023-12-24T07:30:15.400Z,1.45
2023-12-24T07:32:49.671Z,1.20
2023-12-24T07:35:21.580Z,1.25
2023-12-24T07:37:52.160Z,1.02
2023-12-24T07:40:22.510Z,1.10
2023-12-24T07:42:53.250Z,1.08
2023-12-24T07:45:25.217Z,0.90
2023-12-24T07:47:57.986Z,1.02
2023-12-24T07:50:28.837Z,1.63
2023-12-24T07:52:59.302Z,1.52
2023-12-24T07:55:29.612Z,1.30
2023-12-24T07:57:59.876Z,1.98
2023-12-24T08:00:30.234Z,1.45
2023-12-24T08:03:00.552Z,1.70
2023-12-24T08:05:31.045Z,1.23
2023-12-24T08:08:01.429Z,1.90
2023-12-24T08:10:31.803Z,2.15
2023-12-24T08:13:08.697Z,1.88
2023-12-24T08:15:44.187Z,1.23
2023-12-24T08:18:15.175Z,1.38
2023-12-24T08:20:45.745Z,1.50
2023-12-24T08:23:17.726Z,1.08
2023-12-24T08:25:51.007Z,0.85
2023-12-24T08:28:21.735Z,1.30
2023-12-24T08:30:52.488Z,1.30
2023-12-24T08:33:23.183Z,1.20
2023-12-24T08:35:53.832Z,0.88
2023-12-24T08:38:27.096Z,0.80
2023-12-24T08:41:00.312Z,1.23
2023-12-24T08:43:30.753Z,1.35
2023-12-24T08:46:03.955Z,1.10
2023-12-24T08:48:34.415Z,1.33
2023-12-24T08:51:04.843Z,1.40
2023-12-24T08:53:35.196Z,1.40
2023-12-24T08:56:05.609Z,1.45
2023-12-24T08:58:35.899Z,1.20
2023-12-24T09:01:06.455Z,1.23
2023-12-24T09:03:37.010Z,1.60
2023-12-24T09:06:10.052Z,1.70
2023-12-24T09:08:41.595Z,1.30
2023-12-24T09:11:12.014Z,1.65
2023-12-24T09:13:43.450Z,1.30
2023-12-24T09:16:15.727Z,1.27
2023-12-24T09:18:49.103Z,1.10
2023-12-24T09:21:19.734Z,1.50
2023-12-24T09:23:50.630Z,1.35
2023-12-24T09:26:21.325Z,1.27
2023-12-24T09:28:51.832Z,0.98
2023-12-24T09:31:22.219Z,1.38
2023-12-24T09:33:53.876Z,1.08
2023-12-24T09:36:24.917Z,0.63
2023-12-24T09:38:55.451Z,0.73
2023-12-24T09:41:26.017Z,0.43
2023-12-24T09:43:56.496Z,0.50
2023-12-24T09:46:28.565Z,0.43
2023-12-24T09:48:59.523Z,0.93
2023-12-24T09:51:31.055Z,0.73
2023-12-24T09:54:01.804Z,0.90
2023-12-24T09:56:32.195Z,0.60
2023-12-24T09:59:06.629Z,0.47
2023-12-24T10:01:48.556Z,0.88
2023-12-24T10:04:19.273Z,0.55
2023-12-24T10:06:57.854Z,0.40
2023-12-24T10:09:50.357Z,0.40
2023-12-24T10:12:22.289Z,0.50
2023-12-24T10:15:03.219Z,0.55
2023-12-24T10:17:39.119Z,0.60
2023-12-24T10:20:12.471Z,0.30
2023-12-24T10:22:43.940Z,0.32
2023-12-24T10:25:20.830Z,0.50
2023-12-24T10:27:51.183Z,0.55
2023-12-24T10:30:21.964Z,0.60
2023-12-24T10:32:53.972Z,0.50
2023-12-24T10:35:27.591Z,0.60
2023-12-24T10:38:25.579Z,0.50
2023-12-24T10:40:56.132Z,0.70
2023-12-24T10:43:26.944Z,0.50
2023-12-24T10:45:58.501Z,0.30
2023-12-24T10:48:29.207Z,0.30
2023-12-24T10:50:59.947Z,0.32
2023-12-24T10:53:31.730Z,0.30
2023-12-24T10:56:11.051Z,0.82
2023-12-24T10:59:16.246Z,0.32
2023-12-24T11:01:52.208Z,0.47
2023-12-24T11:04:48.377Z,0.50
2023-12-24T11:07:37.230Z,0.40
2023-12-24T11:10:12.479Z,0.50
2023-12-24T11:12:47.786Z,0.40
2023-12-24T11:15:45.613Z,0.40
2023-12-24T11:18:35.608Z,0.40
2023-12-24T11:21:06.160Z,0.55
2023-12-24T11:23:37.194Z,0.60
2023-12-24T11:26:34.330Z,0.90
2023-12-24T11:29:26.612Z,0.40
2023-12-24T11:31:57.094Z,0.40
2023-12-24T11:34:36.668Z,0.63
2023-12-24T11:37:07.249Z,0.30
2023-12-24T11:40:05.395Z,0.50
2023-12-24T11:42:56.677Z,0.60
2023-12-24T11:45:32.920Z,0.60
2023-12-24T11:48:06.279Z,0.80
2023-12-24T11:50:37.607Z,0.43
2023-12-24T11:53:12.903Z,0.70
2023-12-24T11:55:43.217Z,0.73
2023-12-24T11:58:13.613Z,1.05
2023-12-24T12:00:45.607Z,1.08
2023-12-24T12:03:21.135Z,0.90
2023-12-24T12:05:51.491Z,0.68
2023-12-24T12:08:33.182Z,0.60
2023-12-24T12:11:03.938Z,0.88
2023-12-24T12:13:34.626Z,0.90
2023-12-24T12:16:04.882Z,0.70
2023-12-24T12:18:35.192Z,0.90
2023-12-24T12:21:05.540Z,0.60
2023-12-24T12:23:36.167Z,0.98
2023-12-24T12:26:07.100Z,0.70
2023-12-24T12:28:40.140Z,0.90
2023-12-24T12:31:10.471Z,0.80
2023-12-24T12:33:40.847Z,1.13
2023-12-24T12:36:12.171Z,0.85
2023-12-24T12:38:43.506Z,0.60
2023-12-24T12:41:13.952Z,0.95
2023-12-24T12:43:47.351Z,0.82
2023-12-24T12:46:17.708Z,0.70
2023-12-24T12:48:49.476Z,0.57
2023-12-24T12:51:20.042Z,0.80
2023-12-24T12:53:53.578Z,0.60
2023-12-24T12:56:24.441Z,0.60
2023-12-24T12:58:57.641Z,0.70
2023-12-24T13:01:27.945Z,0.80
2023-12-24T13:04:05.927Z,1.08
2023-12-24T13:06:36.341Z,0.70
2023-12-24T13:09:11.203Z,1.00
2023-12-24T13:11:41.822Z,1.27
2023-12-24T13:14:12.695Z,1.00
2023-12-24T13:16:43.065Z,1.02
2023-12-24T13:19:20.023Z,0.77
2023-12-24T13:21:52.922Z,0.85
2023-12-24T13:24:23.692Z,1.00
2023-12-24T13:26:54.083Z,1.00
2023-12-24T13:29:24.484Z,1.58
2023-12-24T13:31:54.872Z,1.02
2023-12-24T13:34:25.371Z,0.70
2023-12-24T13:36:55.687Z,1.30
2023-12-24T13:39:25.990Z,0.73
2023-12-24T13:41:56.292Z,1.15
2023-12-24T13:44:26.644Z,0.75
2023-12-24T13:46:56.986Z,1.00
2023-12-24T13:49:30.559Z,0.90
2023-12-24T13:52:02.050Z,0.80
2023-12-24T13:54:33.876Z,1.67
2023-12-24T13:57:06.413Z,1.30
2023-12-24T13:59:36.772Z,1.17
2023-12-24T14:02:09.309Z,1.27
2023-12-24T14:04:40.047Z,0.80
2023-12-24T14:07:12.129Z,1.00
2023-12-24T14:09:45.211Z,1.08
2023-12-24T14:12:15.766Z,1.25
2023-12-24T14:14:46.134Z,0.93
2023-12-24T14:17:16.502Z,1.08
2023-12-24T14:19:47.985Z,0.90
2023-12-24T14:22:18.708Z,1.77
2023-12-24T14:24:49.276Z,1.05
2023-12-24T14:27:21.867Z,1.23
2023-12-24T14:29:52.429Z,0.82
2023-12-24T14:32:23.333Z,0.75
2023-12-24T14:34:55.412Z,1.30
2023-12-24T14:37:25.889Z,1.00
2023-12-24T14:39:56.242Z,0.98
2023-12-24T14:42:26.529Z,0.95
2023-12-24T14:44:58.770Z,0.85
2023-12-24T14:47:32.228Z,1.35
2023-12-24T14:50:02.975Z,1.00
2023-12-24T14:52:33.753Z,0.90
2023-12-24T14:55:05.450Z,1.13
2023-12-24T14:57:36.964Z,1.27
2023-12-24T15:00:11.684Z,1.17
2023-12-24T15:02:42.483Z,0.82
2023-12-24T15:05:13.235Z,0.70
2023-12-24T15:07:45.366Z,0.68
2023-12-24T15:10:15.730Z,0.80
2023-12-24T15:12:46.022Z,1.42
2023-12-24T15:15:16.730Z,0.82
2023-12-24T15:17:47.635Z,0.75
2023-12-24T15:20:18.333Z,0.90
2023-12-24T15:22:48.734Z,0.90
2023-12-24T15:25:19.327Z,0.90
2023-12-24T15:27:49.664Z,0.80
2023-12-24T15:30:20.197Z,1.25
2023-12-24T15:32:51.083Z,1.23
2023-12-24T15:35:22.006Z,0.90
2023-12-24T15:37:52.296Z,1.00
2023-12-24T15:40:22.628Z,2.05
2023-12-24T15:42:53.132Z,1.20
2023-12-24T15:45:31.874Z,1.00
2023-12-24T15:48:03.564Z,0.90
2023-12-24T15:50:35.447Z,0.90
2023-12-24T15:53:05.758Z,0.93
2023-12-24T15:55:36.072Z,1.02
2023-12-24T15:58:06.698Z,1.10
2023-12-24T16:00:37.115Z,1.08
2023-12-24T16:03:07.603Z,1.25
2023-12-24T16:05:38.387Z,1.35
2023-12-24T16:08:09.978Z,0.82
2023-12-24T16:10:40.700Z,0.70
2023-12-24T16:13:10.981Z,1.10
2023-12-24T16:15:41.369Z,1.00
2023-12-24T16:18:11.835Z,0.85
2023-12-24T16:20:42.236Z,0.98
2023-12-24T16:23:13.028Z,0.82
2023-12-24T16:25:43.538Z,1.25
2023-12-24T16:28:15.402Z,1.00
2023-12-24T16:30:47.553Z,1.13
2023-12-24T16:33:18.083Z,1.20
2023-12-24T16:35:48.532Z,1.20
2023-12-24T16:38:25.904Z,1.17
2023-12-24T16:40:56.271Z,1.02
2023-12-24T16:43:26.659Z,1.23
2023-12-24T16:45:57.734Z,1.20
2023-12-24T16:48:28.789Z,0.80
2023-12-24T16:50:59.256Z,0.60
2023-12-24T16:53:29.571Z,0.77
2023-12-24T16:56:05.095Z,1.00
2023-12-24T16:58:35.368Z,1.08
2023-12-24T17:01:05.949Z,1.00
2023-12-24T17:03:36.294Z,1.10
2023-12-24T17:06:07.136Z,1.17
2023-12-24T17:08:39.222Z,1.10
2023-12-24T17:11:11.195Z,1.10
2023-12-24T17:13:44.307Z,0.98
2023-12-24T17:16:15.102Z,0.98
2023-12-24T17:18:46.371Z,1.15
2023-12-24T17:21:17.223Z,0.60
2023-12-24T17:23:47.486Z,1.05
2023-12-24T17:26:19.475Z,0.65
2023-12-24T17:28:53.837Z,0.73
2023-12-24T17:31:24.575Z,0.63
2023-12-24T17:33:55.745Z,0.90
2023-12-24T17:36:26.978Z,0.80
2023-12-24T17:38:57.768Z,0.93
2023-12-24T17:41:29.081Z,0.80
2023-12-24T17:43:59.373Z,0.95
2023-12-24T17:46:34.439Z,1.08
2023-12-24T17:49:04.914Z,0.88
2023-12-24T17:51:35.325Z,0.80
2023-12-24T17:54:06.056Z,0.70
2023-12-24T17:56:44.874Z,1.30
2023-12-24T17:59:16.598Z,0.98
2023-12-24T18:01:47.232Z,1.08
2023-12-24T18:04:20.471Z,1.10
2023-12-24T18:06:52.300Z,1.45
2023-12-24T18:09:26.563Z,0.60
2023-12-24T18:11:56.886Z,1.00
2023-12-24T18:14:27.689Z,0.80
2023-12-24T18:16:58.408Z,0.70
2023-12-24T18:19:29.245Z,0.60
2023-12-24T18:22:01.856Z,1.20
2023-12-24T18:24:32.583Z,0.95
2023-12-24T18:27:03.670Z,0.90
2023-12-24T18:29:33.967Z,0.80
2023-12-24T18:32:04.344Z,0.85
2023-12-24T18:34:34.750Z,1.10
2023-12-24T18:37:05.159Z,1.25
2023-12-24T18:39:35.735Z,0.70
2023-12-24T18:42:06.167Z,2.05
2023-12-24T18:44:36.676Z,0.70
2023-12-24T18:47:07.258Z,0.70
2023-12-24T18:49:37.734Z,0.93
2023-12-24T18:52:08.440Z,1.95
2023-12-24T18:54:39.267Z,0.68
2023-12-24T18:57:10.111Z,0.50
2023-12-24T18:59:40.415Z,1.00
2023-12-24T19:02:10.792Z,0.88
2023-12-24T19:04:41.431Z,1.05
2023-12-24T19:07:11.751Z,1.27
2023-12-24T19:09:42.001Z,0.60
2023-12-24T19:12:16.881Z,0.88
2023-12-24T19:14:47.917Z,0.93
2023-12-24T19:17:18.821Z,0.80
2023-12-24T19:19:49.146Z,0.73
2023-12-24T19:22:21.110Z,0.82
2023-12-24T19:24:51.423Z,1.08
2023-12-24T19:27:21.791Z,0.85
2023-12-24T19:29:53.230Z,1.60
2023-12-24T19:32:25.236Z,0.90
2023-12-24T19:34:57.109Z,1.08
2023-12-24T19:37:27.422Z,0.70
2023-12-24T19:39:57.706Z,0.88
2023-12-24T19:42:28.518Z,0.70
2023-12-24T19:44:58.888Z,0.70
2023-12-24T19:47:29.647Z,1.63
2023-12-24T19:50:00.048Z,0.65
2023-12-24T19:52:36.668Z,1.63
2023-12-24T19:55:11.300Z,1.15
2023-12-24T19:57:41.642Z,1.00
2023-12-24T20:00:13.237Z,0.70
2023-12-24T20:02:46.098Z,0.70
2023-12-24T20:05:16.495Z,0.82
2023-12-24T20:07:47.421Z,0.85
2023-12-24T20:10:17.960Z,1.60
2023-12-24T20:12:48.309Z,1.90
2023-12-24T20:15:19.182Z,0.85
2023-12-24T20:17:49.661Z,1.23
2023-12-24T20:20:20.004Z,0.98
2023-12-24T20:22:51.173Z,0.75
2023-12-24T20:25:22.794Z,1.27
2023-12-24T20:27:53.611Z,1.23
2023-12-24T20:30:23.926Z,0.70
2023-12-24T20:32:54.667Z,0.68
2023-12-24T20:35:26.374Z,0.93
2023-12-24T20:37:58.673Z,0.60
2023-12-24T20:40:29.318Z,0.70
2023-12-24T20:43:02.222Z,0.77
2023-12-24T20:45:33.660Z,0.80
2023-12-24T20:48:06.448Z,0.90
2023-12-24T20:50:41.010Z,0.60
2023-12-24T20:53:12.422Z,0.70
2023-12-24T20:55:43.782Z,0.50
2023-12-24T20:58:14.838Z,0.88
2023-12-24T21:00:45.508Z,1.50
2023-12-24T21:03:15.952Z,0.60
2023-12-24T21:05:47.089Z,0.90
2023-12-24T21:08:18.077Z,0.68
2023-12-24T21:10:48.453Z,0.70
2023-12-24T21:13:18.823Z,0.70
2023-12-24T21:15:49.341Z,0.70
2023-12-24T21:18:19.882Z,1.58
2023-12-24T21:20:51.114Z,0.60
2023-12-24T21:23:22.007Z,0.68
2023-12-24T21:25:52.347Z,0.82
2023-12-24T21:28:23.518Z,0.60
2023-12-24T21:30:54.294Z,0.73
2023-12-24T21:33:26.459Z,0.55
2023-12-24T21:35:58.552Z,0.70
2023-12-24T21:38:32.147Z,0.70
2023-12-24T21:41:04.135Z,0.60
2023-12-24T21:43:36.264Z,0.80
2023-12-24T21:46:07.828Z,0.60
2023-12-24T21:48:39.404Z,1.08
2023-12-24T21:51:10.069Z,0.85
2023-12-24T21:53:40.942Z,0.70
2023-12-24T21:56:13.030Z,0.82
2023-12-24T21:58:44.134Z,0.52
2023-12-24T22:01:22.315Z,0.50
2023-12-24T22:03:59.856Z,0.52
2023-12-24T22:06:31.619Z,0.55
2023-12-24T22:09:02.088Z,0.30
2023-12-24T22:11:32.571Z,0.43
2023-12-24T22:14:03.785Z,0.60
2023-12-24T22:16:34.105Z,0.55
2023-12-24T22:19:05.182Z,0.40
2023-12-24T22:21:46.934Z,0.30
2023-12-24T22:24:17.612Z,0.60
2023-12-24T22:26:48.498Z,0.30
2023-12-24T22:29:20.222Z,0.30
2023-12-24T22:31:53.110Z,0.30
2023-12-24T22:34:23.624Z,0.20
2023-12-24T22:36:54.973Z,0.30
2023-12-24T22:39:25.284Z,0.25
2023-12-24T22:41:55.719Z,0.38
2023-12-24T22:44:28.405Z,0.30
2023-12-24T22:46:58.998Z,0.20
2023-12-24T22:49:29.360Z,0.10
2023-12-24T22:51:59.797Z,0.10
2023-12-24T22:54:31.040Z,0.38
2023-12-24T22:57:01.747Z,0.20
2023-12-24T22:59:32.814Z,0.17
2023-12-24T23:02:05.721Z,0.20
2023-12-24T23:04:36.273Z,0.43
2023-12-24T23:07:07.125Z,0.20
2023-12-24T23:09:37.450Z,0.30
2023-12-24T23:12:08.501Z,0.20
2023-12-24T23:14:38.922Z,0.30
2023-12-24T23:17:09.590Z,0.22
2023-12-24T23:19:39.955Z,0.20
2023-12-24T23:22:10.326Z,0.30
2023-12-24T23:24:41.197Z,0.20
2023-12-24T23:27:11.773Z,0.85
2023-12-24T23:29:45.917Z,0.10
2023-12-24T23:32:19.910Z,0.20
2023-12-24T23:34:50.370Z,0.20
2023-12-24T23:37:20.964Z,0.20
2023-12-24T23:39:51.455Z,0.13
2023-12-24T23:42:21.983Z,0.13
2023-12-24T23:44:52.467Z,0.22
2023-12-24T23:47:23.439Z,0.15
2023-12-24T23:49:53.885Z,0.77
2023-12-24T23:52:24.272Z,0.20
2023-12-24T23:54:54.716Z,0.10
2023-12-24T23:57:26.263Z,0.20
2023-12-24T23:59:57.816Z,0.20
